Clear Creek, Ohio
Current Conditions -  °F | °C
As of 12:52 AM on Saturday 20 Dec 2014 (Local Time) from KMFD Reporting Station
Overcast Overcast  
Wind Chill: 28°   Ceiling: 1800
Heat Index: 28°   Visibility: 10mi
Dew Point: 20°   Wind: 3mph
Humidity: 72%   Direction: 60°ENE
Pressure: 30.23"   Gusts: NA
Location:  40.9675°N, 82.3687°W
Report Text: KMFD 200552Z 06003KT 10SM OVC018 M02/M07 A3023 RMK AO2 SLP254 T10221067 11022 21028 56007
Loading
Personal Weather Stations






























Interactive Weather Map New forecast layout! Learn more

10-Day Weather Forecast

Advertisements
Track Severe Weather on mobile